createdAt,value
2023-07-03T00:12:25.956Z,35.50
2023-07-03T00:27:27.724Z,31.63
2023-07-03T00:42:30.910Z,33.70
2023-07-03T00:57:32.676Z,32.80
2023-07-03T01:12:38.667Z,36.80
2023-07-03T01:27:43.967Z,32.20
2023-07-03T01:42:47.172Z,35.70
2023-07-03T01:58:04.900Z,32.50
2023-07-03T02:13:06.767Z,34.03
2023-07-03T02:28:08.644Z,32.67
2023-07-03T02:43:10.626Z,35.60
2023-07-03T02:58:12.328Z,35.10
2023-07-03T03:13:14.051Z,36.43
2023-07-03T03:28:15.722Z,35.27
2023-07-03T03:43:17.360Z,30.17
2023-07-03T03:58:20.571Z,34.20
2023-07-03T04:13:22.471Z,28.37
2023-07-03T04:28:24.660Z,34.87
2023-07-03T04:43:26.359Z,35.17
2023-07-03T04:58:28.060Z,33.10
2023-07-03T05:13:29.883Z,34.80
2023-07-03T05:28:35.062Z,36.33
2023-07-03T05:43:36.734Z,30.13
2023-07-03T05:58:38.488Z,36.87
2023-07-03T06:13:40.171Z,36.97
2023-07-03T06:28:41.822Z,44.13
2023-07-03T06:43:43.504Z,36.97
2023-07-03T06:58:45.231Z,37.63
2023-07-03T07:13:50.050Z,44.80
2023-07-03T07:28:52.418Z,43.23
2023-07-03T07:43:55.401Z,40.73
2023-07-03T07:58:58.175Z,38.23
2023-07-03T08:13:59.822Z,44.63
2023-07-03T08:29:01.923Z,44.50
2023-07-03T08:44:04.215Z,44.43
2023-07-03T08:59:07.225Z,42.07
2023-07-03T09:14:15.412Z,44.50
2023-07-03T09:29:17.086Z,39.17
2023-07-03T09:44:20.262Z,57.57
2023-07-03T09:59:25.183Z,49.80
2023-07-03T10:14:48.864Z,42.30
2023-07-03T10:29:54.547Z,49.93
2023-07-03T11:00:13.207Z,49.77
2023-07-03T11:15:23.676Z,55.57
2023-07-03T11:30:27.085Z,56.97
2023-07-03T11:45:28.964Z,52.33
2023-07-03T12:00:33.076Z,54.50
2023-07-03T12:15:34.780Z,51.50
2023-07-03T12:30:38.093Z,51.47
2023-07-03T12:45:39.749Z,45.13
2023-07-03T13:00:41.738Z,53.10
2023-07-03T13:15:45.859Z,50.73
2023-07-03T13:31:03.927Z,49.63
2023-07-03T13:46:05.799Z,50.13
2023-07-03T14:01:21.062Z,48.13
2023-07-03T14:16:23.331Z,50.20
2023-07-03T14:31:25.208Z,52.20
2023-07-03T14:46:26.913Z,48.70
2023-07-03T15:01:29.070Z,54.33
2023-07-03T15:16:32.716Z,48.47
2023-07-03T15:31:34.563Z,47.47
2023-07-03T15:46:38.771Z,46.47
2023-07-03T16:01:40.608Z,44.20
2023-07-03T16:16:42.382Z,52.80
2023-07-03T16:31:46.301Z,53.57
2023-07-03T16:46:48.719Z,47.90
2023-07-03T17:01:50.482Z,51.63
2023-07-03T17:16:52.284Z,48.47
2023-07-03T17:31:54.161Z,53.03
2023-07-03T17:46:55.998Z,53.17
2023-07-03T18:01:57.922Z,46.47
2023-07-03T18:16:59.723Z,48.67
2023-07-03T18:32:01.422Z,41.50
2023-07-03T18:47:04.732Z,48.50
2023-07-03T19:02:07.503Z,37.93
2023-07-03T19:17:09.260Z,46.23
2023-07-03T19:32:11.020Z,43.10
2023-07-03T19:47:12.812Z,48.67
2023-07-03T20:02:14.506Z,43.50
2023-07-03T20:17:16.276Z,43.53
2023-07-03T20:32:19.051Z,35.80
2023-07-03T20:47:21.382Z,35.57
2023-07-03T21:02:23.120Z,42.03
2023-07-03T21:17:24.865Z,41.10
2023-07-03T21:32:26.625Z,37.70
2023-07-03T21:47:28.559Z,38.00
2023-07-03T22:02:30.246Z,35.00
2023-07-03T22:17:31.991Z,36.53
2023-07-03T22:32:33.946Z,33.00
2023-07-03T22:47:36.006Z,32.53
2023-07-03T23:02:41.409Z,31.40
2023-07-03T23:17:43.196Z,27.47
2023-07-03T23:32:45.008Z,31.90
2023-07-03T23:47:48.224Z,32.37
